TAF KBLF
KBLF 081800Z 0818/0918 29010KT P6SM SCT025 TEMPO 0818/0820 BKN025 FM082000 29010G19KT P6SM SKC FM090600 30009KT P6SM SCT250 FM091200 VRB03KT P6SM BKN250=
METAR KBLF
WC KBLF
WS KBLF
WV KBLF